Time;durP1;ratioP1;P1;durP2;ratioP2;P2;SDS_P1;SDS_P2;PMS_P1;PMS_P2;Temp;Humidity;BMP_temperature;BMP_pressure;BME280_temperature;BME280_humidity;BME280_pressure;Samples;Min_cycle;Max_cycle;Signal;HPM_P1;HPM_P2
2022/09/22 00:03:33;;;;;;;68.43;7.32;;;11.30;97.50;;;;;;5030076;28;20162;-84
2022/09/22 00:06:18;;;;;;;71.28;8.73;;;11.30;98.00;;;;;;5031108;28;20142;-83
2022/09/22 00:08:48;;;;;;;72.63;7.65;;;11.30;98.40;;;;;;5030935;28;20305;-84
2022/09/22 00:11:56;;;;;;;70.93;8.40;;;11.30;97.90;;;;;;5030015;28;20177;-84
2022/09/22 00:15:10;;;;;;;69.00;8.00;;;11.30;97.40;;;;;;4950025;29;20404;-84
2022/09/22 00:17:38;;;;;;;69.00;7.85;;;11.20;97.40;;;;;;4950794;29;20220;-84
2022/09/22 00:20:20;;;;;;;69.88;8.20;;;11.20;98.50;;;;;;4933968;29;20180;-84
2022/09/22 00:23:04;;;;;;;71.70;10.32;;;11.20;98.40;;;;;;4951286;29;20177;-84
2022/09/22 00:26:03;;;;;;;71.10;9.00;;;11.10;99.50;;;;;;4951024;29;20181;-84
2022/09/22 00:28:52;;;;;;;70.40;8.90;;;11.10;99.30;;;;;;4957900;28;20297;-84
2022/09/22 00:31:34;;;;;;;68.85;8.63;;;11.10;99.70;;;;;;5031248;28;20190;-84
2022/09/22 00:34:28;;;;;;;71.80;8.85;;;11.10;99.70;;;;;;5030418;28;20210;-84
2022/09/22 00:37:05;;;;;;;69.97;8.38;;;11.10;99.00;;;;;;5001899;28;20663;-84
2022/09/22 00:39:52;;;;;;;72.72;8.88;;;11.10;99.30;;;;;;5030767;28;20214;-84
2022/09/22 00:43:06;;;;;;;;;;;;;;;;;;;;;
2022/09/22 00:45:47;;;;;;;70.68;8.77;;;11.00;99.90;;;;;;5030464;28;20226;-84
2022/09/22 00:48:33;;;;;;;74.75;8.40;;;11.00;99.90;;;;;;5030176;28;20187;-84
2022/09/22 00:51:16;;;;;;;70.35;8.82;;;11.00;99.90;;;;;;5012618;28;20170;-84
2022/09/22 00:53:53;;;;;;;68.95;8.60;;;11.00;99.90;;;;;;5030385;28;20201;-84
2022/09/22 00:56:52;;;;;;;72.72;10.10;;;11.00;99.90;;;;;;5012374;28;20239;-84
2022/09/22 00:59:36;;;;;;;72.07;9.57;;;11.00;99.90;;;;;;5014421;28;20232;-84
2022/09/22 01:03:01;;;;;;;;;;;;;;;;;;;;;
2022/09/22 01:05:32;;;;;;;71.05;8.45;;;10.90;99.90;;;;;;5018311;28;20209;-84
2022/09/22 01:08:27;;;;;;;71.78;9.88;;;10.80;99.90;;;;;;5030474;28;20189;-84
2022/09/22 01:14:36;;;;;;;71.45;9.07;;;10.80;99.90;;;;;;5030384;28;20183;-84
2022/09/22 01:17:34;;;;;;;72.05;9.98;;;10.80;99.90;;;;;;5029778;28;20162;-84
2022/09/22 01:20:32;;;;;;;72.32;10.10;;;10.80;99.90;;;;;;5030281;28;20184;-84
2022/09/22 01:26:45;;;;;;;70.90;10.25;;;10.80;99.90;;;;;;5010333;28;20568;-84
2022/09/22 01:29:53;;;;;;;72.82;9.40;;;10.70;99.90;;;;;;5029712;28;20213;-84
2022/09/22 01:36:13;;;;;;;;;;;;;;;;;;;;;
2022/09/22 01:39:16;;;;;;;70.78;9.65;;;10.70;99.90;;;;;;5029256;28;20209;-84
2022/09/22 01:45:44;;;;;;;68.90;9.27;;;10.60;99.90;;;;;;4966356;28;20176;-84
2022/09/22 01:48:54;;;;;;;71.55;9.60;;;10.60;99.90;;;;;;5029224;28;20182;-84
2022/09/22 01:52:17;;;;;;;77.47;8.60;;;10.60;99.90;;;;;;4949360;29;20742;-84
2022/09/22 01:55:12;;;;;;;71.38;8.68;;;10.50;99.90;;;;;;4892734;29;20222;-84
2022/09/22 01:58:11;;;;;;;70.28;8.00;;;10.50;99.90;;;;;;4949119;29;20303;-84
2022/09/22 02:01:21;;;;;;;70.63;9.60;;;10.60;99.90;;;;;;4948363;29;20656;-84
2022/09/22 02:04:27;;;;;;;71.47;9.00;;;10.50;99.90;;;;;;5026495;28;20178;-84
2022/09/22 02:07:16;;;;;;;70.35;9.50;;;10.40;99.90;;;;;;5028616;28;20581;-84
2022/09/22 02:09:52;;;;;;;73.35;9.60;;;10.50;99.90;;;;;;5029361;28;20208;-84
2022/09/22 02:12:54;;;;;;;71.38;10.65;;;10.40;99.90;;;;;;5010998;28;20200;-84
2022/09/22 02:18:42;;;;;;;73.95;10.65;;;10.40;99.90;;;;;;5029498;28;20200;-84
2022/09/22 02:21:33;;;;;;;78.70;17.92;;;10.20;99.90;;;;;;5028277;28;20181;-84
2022/09/22 02:24:29;;;;;;;72.25;15.23;;;10.30;99.90;;;;;;5028610;28;20162;-84
2022/09/22 02:27:35;;;;;;;;;;;;;;;;;;;;;
2022/09/22 02:30:52;;;;;;;;;;;;;;;;;;;;;
2022/09/22 02:33:43;;;;;;;;;;;;;;;;;;;;;
2022/09/22 02:36:49;;;;;;;77.32;20.23;;;10.10;99.90;;;;;;5028414;28;20254;-86
2022/09/22 02:39:42;;;;;;;74.65;22.58;;;10.10;99.90;;;;;;5028140;28;20204;-84
2022/09/22 02:42:45;;;;;;;74.45;27.40;;;10.20;99.90;;;;;;5027839;28;20174;-84
2022/09/22 02:45:24;;;;;;;75.18;24.95;;;10.20;99.90;;;;;;5027369;28;20169;-84
2022/09/22 02:48:18;;;;;;;70.47;16.00;;;10.30;99.90;;;;;;5028134;28;20213;-84
2022/09/22 02:51:05;;;;;;;73.60;15.60;;;10.20;99.90;;;;;;5010402;28;20174;-84
2022/09/22 02:53:37;;;;;;;72.30;12.88;;;10.20;99.90;;;;;;5028186;28;20181;-84
2022/09/22 02:59:13;;;;;;;73.43;18.60;;;10.10;99.90;;;;;;4986216;28;20263;-84
2022/09/22 03:01:54;;;;;;;;;;;;;;;;;;;;;
2022/09/22 03:04:50;;;;;;;70.88;16.33;;;10.10;99.90;;;;;;5028169;28;20189;-84
2022/09/22 03:07:48;;;;;;;73.43;20.52;;;10.10;99.90;;;;;;5010519;28;20200;-85
2022/09/22 03:10:48;;;;;;;71.97;15.82;;;10.10;99.90;;;;;;4977705;28;20178;-84
2022/09/22 03:13:40;;;;;;;73.15;16.02;;;10.10;99.90;;;;;;5027825;28;20181;-85
2022/09/22 03:16:21;;;;;;;75.53;16.70;;;10.10;99.90;;;;;;5009578;28;20202;-85
2022/09/22 03:19:10;;;;;;;;;;;;;;;;;;;;;
2022/09/22 03:21:50;;;;;;;72.68;17.58;;;10.10;99.90;;;;;;5026655;28;20190;-85
2022/09/22 03:24:35;;;;;;;71.70;17.52;;;10.10;99.90;;;;;;5027565;28;20154;-84
2022/09/22 03:27:27;;;;;;;71.25;13.25;;;10.10;99.90;;;;;;5027296;28;20169;-84
2022/09/22 03:30:04;;;;;;;73.57;12.85;;;10.00;99.90;;;;;;5027101;28;20142;-85
2022/09/22 03:32:33;;;;;;;72.80;13.43;;;10.00;99.90;;;;;;5025140;28;20168;-84
2022/09/22 03:35:51;;;;;;;72.90;14.65;;;10.00;99.90;;;;;;5024694;28;20247;-84
2022/09/22 03:42:33;;;;;;;69.88;13.60;;;9.90;99.90;;;;;;5019061;28;20181;-84
2022/09/22 03:45:07;;;;;;;;;;;;;;;;;;;;;
2022/09/22 03:48:25;;;;;;;70.00;10.60;;;9.80;99.90;;;;;;5024096;28;20249;-84
2022/09/22 03:51:39;;;;;;;;;;;;;;;;;;;;;
2022/09/22 03:54:34;;;;;;;68.82;8.43;;;9.80;99.90;;;;;;5023869;28;20253;-84
2022/09/22 03:57:08;;;;;;;69.93;10.93;;;9.90;99.90;;;;;;5024476;28;20158;-85
2022/09/22 03:59:46;;;;;;;70.30;11.25;;;9.80;99.90;;;;;;5027996;28;20204;-84
2022/09/22 04:02:50;;;;;;;70.70;9.82;;;9.80;99.90;;;;;;5027519;28;20169;-84
2022/09/22 04:05:37;;;;;;;71.57;13.23;;;9.80;99.90;;;;;;5026907;28;20189;-84
2022/09/22 04:08:42;;;;;;;72.60;14.10;;;9.70;99.90;;;;;;5026855;28;20186;-84
2022/09/22 04:11:20;;;;;;;69.18;11.27;;;9.70;99.90;;;;;;5014893;28;20204;-86
2022/09/22 04:13:57;;;;;;;69.10;13.20;;;9.60;99.90;;;;;;5027168;28;20181;-86
2022/09/22 04:17:10;;;;;;;72.32;12.82;;;9.70;99.90;;;;;;5026765;28;20188;-86
2022/09/22 04:19:54;;;;;;;70.85;11.25;;;9.60;99.90;;;;;;5014276;28;20184;-86
2022/09/22 04:22:27;;;;;;;69.25;9.60;;;9.60;99.90;;;;;;5008826;28;20518;-86
2022/09/22 04:25:14;;;;;;;71.00;10.52;;;9.60;99.90;;;;;;5008508;28;20165;-86
2022/09/22 04:28:01;;;;;;;71.20;13.00;;;9.50;99.90;;;;;;5009803;28;20186;-84
2022/09/22 04:30:32;;;;;;;68.85;12.10;;;9.50;99.90;;;;;;5006842;28;20182;-84
2022/09/22 04:33:14;;;;;;;69.82;11.73;;;9.50;99.90;;;;;;5010707;28;20522;-84
2022/09/22 04:35:46;;;;;;;70.72;12.38;;;9.50;99.90;;;;;;5009800;28;20204;-84
2022/09/22 04:38:33;;;;;;;;;;;;;;;;;;;;;
2022/09/22 04:41:05;;;;;;;74.40;11.32;;;9.50;99.90;;;;;;5028462;28;20265;-85
2022/09/22 04:44:41;;;;;;;68.72;10.43;;;9.50;99.90;;;;;;5010196;28;20168;-85
2022/09/22 04:53:19;;;;;;;71.60;11.93;;;9.40;99.90;;;;;;5016096;28;20229;-83
2022/09/22 04:55:45;;;;;;;72.17;13.07;;;9.40;99.90;;;;;;5016921;28;20232;-83
2022/09/22 04:58:11;;;;;;;70.47;14.07;;;9.30;99.90;;;;;;5016959;28;20178;-82
2022/09/22 05:00:37;;;;;;;70.90;17.00;;;9.30;99.90;;;;;;5016844;28;20166;-83
2022/09/22 05:03:08;;;;;;;69.78;14.60;;;9.30;99.90;;;;;;5016555;28;20158;-83
2022/09/22 05:05:34;;;;;;;74.45;28.23;;;9.20;99.90;;;;;;5016896;28;20201;-83
2022/09/22 05:08:00;;;;;;;74.90;26.90;;;9.20;99.90;;;;;;5016057;28;20673;-83
2022/09/22 05:10:29;;;;;;;78.70;28.88;;;9.20;99.90;;;;;;5016861;28;20401;-83
2022/09/22 05:12:55;;;;;;;78.70;37.65;;;9.10;99.90;;;;;;4998785;28;20173;-83
2022/09/22 05:15:21;;;;;;;76.57;35.80;;;9.20;99.90;;;;;;5017159;28;20545;-83
2022/09/22 05:17:48;;;;;;;78.77;38.90;;;9.20;99.90;;;;;;4998884;28;20197;-83
2022/09/22 05:20:14;;;;;;;75.80;30.48;;;9.20;99.90;;;;;;5016572;28;20415;-83
2022/09/22 05:22:41;;;;;;;82.50;40.20;;;9.20;99.90;;;;;;5015995;28;20166;-83
2022/09/22 05:25:10;;;;;;;82.47;40.90;;;9.20;99.90;;;;;;5016168;28;20409;-83
2022/09/22 05:27:36;;;;;;;86.22;45.35;;;9.20;99.90;;;;;;4998245;28;20285;-83
2022/09/22 05:30:04;;;;;;;77.78;35.60;;;9.20;99.90;;;;;;5015990;28;20194;-83
2022/09/22 05:32:29;;;;;;;82.80;42.65;;;9.10;99.90;;;;;;5016213;28;20162;-81
2022/09/22 05:34:56;;;;;;;79.77;40.77;;;9.10;99.90;;;;;;5015981;28;20243;-82
2022/09/22 05:37:21;;;;;;;82.47;51.88;;;9.10;99.90;;;;;;5015969;28;20186;-82
2022/09/22 05:39:47;;;;;;;84.63;43.97;;;9.20;99.90;;;;;;5016404;28;20165;-82
2022/09/22 05:42:13;;;;;;;80.80;44.30;;;9.20;99.90;;;;;;5015841;28;20162;-82
2022/09/22 05:44:38;;;;;;;87.10;47.07;;;9.20;99.90;;;;;;4998575;28;20177;-83
2022/09/22 05:47:04;;;;;;;82.80;40.07;;;9.20;99.90;;;;;;5015787;28;20170;-83
2022/09/22 05:49:30;;;;;;;82.10;38.47;;;9.20;99.90;;;;;;5016164;28;20687;-83
2022/09/22 05:51:56;;;;;;;78.47;40.50;;;9.30;99.90;;;;;;5014531;28;20188;-83
2022/09/22 05:54:23;;;;;;;81.28;41.85;;;9.30;99.90;;;;;;5016039;28;20154;-83
2022/09/22 05:56:49;;;;;;;82.07;36.03;;;9.30;99.90;;;;;;5016126;28;20162;-83
2022/09/22 05:59:14;;;;;;;82.10;37.07;;;9.30;99.90;;;;;;5016046;28;20244;-83
2022/09/22 06:01:41;;;;;;;81.37;43.17;;;9.20;99.90;;;;;;5016166;28;20447;-83
2022/09/22 06:04:06;;;;;;;84.60;45.60;;;9.10;99.90;;;;;;4998318;28;20224;-83
2022/09/22 06:06:32;;;;;;;81.13;43.53;;;9.20;99.90;;;;;;4998317;28;20604;-83
2022/09/22 06:08:58;;;;;;;81.23;43.50;;;9.20;99.90;;;;;;5016074;28;20189;-83
2022/09/22 06:11:23;;;;;;;79.80;45.10;;;9.30;99.90;;;;;;5016155;28;20286;-83
2022/09/22 06:13:49;;;;;;;79.57;37.40;;;9.30;99.90;;;;;;5016187;28;20173;-83
2022/09/22 06:16:16;;;;;;;91.22;41.33;;;9.30;99.90;;;;;;4997907;28;20190;-83
2022/09/22 06:18:46;;;;;;;75.72;29.73;;;9.40;99.90;;;;;;5015876;28;20206;-83
2022/09/22 06:21:12;;;;;;;80.57;31.75;;;9.30;99.90;;;;;;4998491;28;20162;-83
2022/09/22 06:23:39;;;;;;;78.38;32.70;;;9.20;99.90;;;;;;4998128;28;20161;-83
2022/09/22 06:26:05;;;;;;;74.82;23.33;;;9.20;99.90;;;;;;5015337;28;20649;-83
2022/09/22 06:28:31;;;;;;;83.60;21.57;;;9.20;99.90;;;;;;5015183;28;20190;-83
2022/09/22 06:31:00;;;;;;;72.55;17.00;;;9.30;99.90;;;;;;5015328;28;20170;-83
2022/09/22 06:33:26;;;;;;;69.93;14.38;;;9.30;99.90;;;;;;4998142;28;20185;-83
2022/09/22 06:35:53;;;;;;;71.45;13.60;;;9.30;99.90;;;;;;4997543;28;20675;-83
2022/09/22 06:38:19;;;;;;;74.88;14.13;;;9.30;99.90;;;;;;4997445;28;20198;-83
2022/09/22 06:40:44;;;;;;;69.82;12.07;;;9.30;99.90;;;;;;5015722;28;20165;-83
2022/09/22 06:43:21;;;;;;;70.73;9.83;;;9.30;99.90;;;;;;5015023;28;20170;-83
2022/09/22 06:45:50;;;;;;;71.50;11.27;;;9.40;99.90;;;;;;5015434;28;20145;-83
2022/09/22 06:48:17;;;;;;;75.45;12.77;;;9.40;99.90;;;;;;5015488;28;20197;-83
2022/09/22 06:50:48;;;;;;;72.20;11.27;;;9.50;99.90;;;;;;5015320;28;20170;-83
2022/09/22 06:53:13;;;;;;;73.88;10.32;;;9.50;99.90;;;;;;4997481;28;20597;-83
2022/09/22 06:55:41;;;;;;;70.10;12.40;;;9.60;99.90;;;;;;4997492;28;20248;-83
2022/09/22 06:58:08;;;;;;;71.60;12.20;;;9.60;99.90;;;;;;5015101;28;20269;-83
2022/09/22 07:00:34;;;;;;;72.00;11.95;;;9.70;99.90;;;;;;4997650;28;20549;-83
2022/09/22 07:03:10;;;;;;;68.93;9.60;;;9.70;99.90;;;;;;5015189;28;20158;-83
2022/09/22 07:05:36;;;;;;;71.32;11.27;;;9.80;99.90;;;;;;4997803;28;20532;-83
2022/09/22 07:08:05;;;;;;;70.77;12.03;;;9.80;99.90;;;;;;5015224;28;20201;-83
2022/09/22 07:10:36;;;;;;;73.78;12.60;;;9.90;99.90;;;;;;4997589;28;20288;-83
2022/09/22 07:13:04;;;;;;;71.38;13.45;;;9.90;99.90;;;;;;4997281;28;20253;-83
2022/09/22 07:15:30;;;;;;;70.82;11.18;;;9.90;99.90;;;;;;4997595;28;20619;-83
2022/09/22 07:17:56;;;;;;;74.13;13.82;;;10.00;99.90;;;;;;5014509;28;20185;-83
2022/09/22 07:20:22;;;;;;;75.30;12.67;;;10.00;99.90;;;;;;5015059;28;20166;-83
2022/09/22 07:22:47;;;;;;;72.60;13.43;;;10.10;99.90;;;;;;4997477;28;20173;-83
2022/09/22 07:25:15;;;;;;;74.50;13.23;;;10.10;99.90;;;;;;4997154;28;20177;-83
2022/09/22 07:27:41;;;;;;;80.07;13.02;;;10.20;99.90;;;;;;4998028;28;20190;-83
2022/09/22 07:30:09;;;;;;;74.28;14.90;;;10.20;99.90;;;;;;4996992;28;20170;-83
2022/09/22 07:32:35;;;;;;;77.72;14.18;;;10.20;99.90;;;;;;5016971;28;20166;-83
2022/09/22 07:35:01;;;;;;;72.03;14.10;;;10.20;99.90;;;;;;5018470;28;20200;-83
2022/09/22 07:37:31;;;;;;;72.83;14.17;;;10.30;99.90;;;;;;5018759;28;20182;-83
2022/09/22 07:39:59;;;;;;;74.90;12.75;;;10.30;99.90;;;;;;5018812;28;20142;-83
2022/09/22 07:42:25;;;;;;;73.63;14.85;;;10.40;99.90;;;;;;5000967;28;20216;-83
2022/09/22 07:50:22;;;;;;;75.53;19.65;;;10.50;99.90;;;;;;5018799;28;20165;-83
2022/09/22 07:52:51;;;;;;;75.97;22.30;;;10.50;99.90;;;;;;5017956;28;20177;-83
2022/09/22 07:55:20;;;;;;;78.15;25.90;;;10.60;99.90;;;;;;5018075;28;20576;-83
2022/09/22 07:57:55;;;;;;;78.72;21.10;;;10.50;99.90;;;;;;5017974;28;20177;-83
2022/09/22 08:00:25;;;;;;;75.10;18.75;;;10.60;99.90;;;;;;5018067;28;20152;-83
2022/09/22 08:02:55;;;;;;;72.53;19.13;;;10.60;99.90;;;;;;5017934;28;20691;-83
2022/09/22 08:05:22;;;;;;;73.22;19.23;;;10.70;99.90;;;;;;5018037;28;20220;-83
2022/09/22 08:07:48;;;;;;;74.80;21.38;;;10.80;99.90;;;;;;5017722;28;20218;-83
2022/09/22 08:10:15;;;;;;;84.38;21.75;;;10.80;99.90;;;;;;5017694;28;20166;-83
2022/09/22 08:12:41;;;;;;;75.95;20.42;;;10.90;99.90;;;;;;5017767;28;20162;-83
2022/09/22 08:15:08;;;;;;;73.65;20.55;;;10.90;99.90;;;;;;4999917;28;20677;-83
2022/09/22 08:17:34;;;;;;;77.50;22.83;;;11.00;99.90;;;;;;5017422;28;20565;-83
2022/09/22 08:20:01;;;;;;;76.47;20.30;;;11.00;99.90;;;;;;4999989;28;20167;-83
2022/09/22 08:22:27;;;;;;;75.90;22.90;;;11.10;99.90;;;;;;5017808;28;20169;-83
2022/09/22 08:24:53;;;;;;;76.75;23.13;;;11.10;99.90;;;;;;5017405;28;20537;-83
2022/09/22 08:27:19;;;;;;;79.47;23.53;;;11.20;99.90;;;;;;4999899;28;20193;-83
2022/09/22 08:29:45;;;;;;;77.47;20.10;;;11.30;99.90;;;;;;5018333;28;20166;-83
2022/09/22 08:32:13;;;;;;;76.07;24.25;;;11.30;99.90;;;;;;5017862;28;20166;-83
2022/09/22 08:34:39;;;;;;;76.63;24.23;;;11.40;99.90;;;;;;4999982;28;20174;-83
2022/09/22 08:37:04;;;;;;;77.57;27.40;;;11.50;99.90;;;;;;4999867;28;20273;-83
2022/09/22 08:39:30;;;;;;;79.27;25.63;;;11.60;99.90;;;;;;5017900;28;20576;-83
2022/09/22 08:42:19;;;;;;;78.07;23.60;;;11.70;99.90;;;;;;5000299;28;20653;-83
2022/09/22 08:45:01;;;;;;;81.78;26.17;;;11.80;99.90;;;;;;5000012;28;20534;-83
2022/09/22 08:53:34;;;;;;;77.38;24.95;;;12.10;99.90;;;;;;5017496;28;20161;-83
2022/09/22 08:56:20;;;;;;;76.18;23.27;;;12.20;99.90;;;;;;5017217;28;20224;-83
2022/09/22 08:58:54;;;;;;;75.18;19.40;;;12.20;99.90;;;;;;5017513;28;20193;-83
2022/09/22 09:01:24;;;;;;;78.32;26.35;;;12.30;99.90;;;;;;5017291;28;20147;-83
2022/09/22 09:04:05;;;;;;;78.10;18.73;;;12.40;99.90;;;;;;5017305;28;20180;-83
2022/09/22 09:06:57;;;;;;;76.65;18.30;;;12.50;99.90;;;;;;4999857;28;20178;-83
2022/09/22 09:09:39;;;;;;;72.57;13.55;;;12.60;99.90;;;;;;4999124;28;20169;-83
2022/09/22 09:12:25;;;;;;;76.70;17.98;;;12.80;99.90;;;;;;5016767;28;20150;-83
2022/09/22 09:15:36;;;;;;;74.95;20.15;;;12.90;99.90;;;;;;5017127;28;20188;-83
2022/09/22 09:18:09;;;;;;;76.10;19.45;;;12.90;99.90;;;;;;5016636;28;20209;-83
2022/09/22 09:20:43;;;;;;;79.90;21.63;;;13.00;99.90;;;;;;5017127;28;20170;-83
2022/09/22 09:23:28;;;;;;;76.78;21.42;;;13.10;99.90;;;;;;5017326;28;20861;-83
2022/09/22 09:25:55;;;;;;;76.93;22.83;;;13.30;99.90;;;;;;4999395;28;20181;-83
2022/09/22 09:28:31;;;;;;;73.63;21.57;;;13.40;99.90;;;;;;4998995;28;20432;-83
2022/09/22 09:31:27;;;;;;;78.63;29.02;;;13.50;99.90;;;;;;4998985;28;20416;-83
2022/09/22 09:34:04;;;;;;;76.77;22.33;;;13.60;99.90;;;;;;5013045;28;20185;-83
2022/09/22 09:36:37;;;;;;;72.70;14.03;;;13.70;99.90;;;;;;4998649;28;20444;-83
2022/09/22 09:39:16;;;;;;;70.27;10.50;;;13.80;99.90;;;;;;4998944;28;20443;-83
2022/09/22 09:41:47;;;;;;;77.60;12.47;;;14.00;99.90;;;;;;5016366;28;20403;-83
2022/09/22 09:44:37;;;;;;;70.10;10.60;;;14.10;98.80;;;;;;5015929;28;20385;-83
2022/09/22 09:47:18;;;;;;;73.53;10.67;;;14.30;99.90;;;;;;5016698;28;20480;-83
2022/09/22 09:49:44;;;;;;;74.50;10.40;;;14.50;99.90;;;;;;5016153;28;20431;-83
2022/09/22 09:52:12;;;;;;;72.93;9.67;;;14.70;99.90;;;;;;5015957;28;20525;-83
2022/09/22 09:54:40;;;;;;;74.93;11.60;;;14.80;94.90;;;;;;5015563;28;20921;-83
2022/09/22 09:57:12;;;;;;;70.00;9.20;;;15.00;88.70;;;;;;5015779;28;20455;-83
2022/09/22 10:02:27;;;;;;;73.17;12.13;;;15.20;89.80;;;;;;5016012;28;20388;-83
2022/09/22 10:04:57;;;;;;;72.20;9.23;;;15.30;74.80;;;;;;5015766;28;20406;-83
2022/09/22 10:07:29;;;;;;;69.40;8.27;;;15.50;71.30;;;;;;5015786;28;20186;-83
2022/09/22 10:10:30;;;;;;;72.47;7.50;;;15.60;59.60;;;;;;5015957;28;20383;-83
2022/09/22 10:13:05;;;;;;;71.37;6.47;;;15.90;67.10;;;;;;5015410;28;20405;-83
2022/09/22 10:15:33;;;;;;;68.80;7.30;;;16.20;51.70;;;;;;4998249;28;20448;-83
2022/09/22 10:17:59;;;;;;;69.10;6.50;;;16.20;43.20;;;;;;5015450;28;20426;-83
2022/09/22 10:20:31;;;;;;;67.47;5.40;;;16.40;41.70;;;;;;4998203;28;20908;-83
2022/09/22 10:23:19;;;;;;;68.80;6.37;;;16.60;21.80;;;;;;5015776;28;20425;-83
2022/09/22 10:25:45;;;;;;;68.77;6.30;;;16.60;29.00;;;;;;5006223;28;20426;-83
2022/09/22 10:28:19;;;;;;;68.67;6.17;;;16.60;27.30;;;;;;5016022;28;20431;-83
2022/09/22 10:31:05;;;;;;;66.30;5.20;;;16.70;4.80;;;;;;4998112;28;20421;-83
2022/09/22 10:33:32;;;;;;;66.30;5.40;;;16.80;5.60;;;;;;4997779;28;20408;-83
2022/09/22 10:36:10;;;;;;;70.43;7.30;;;17.00;1.00;;;;;;5015412;28;20467;-83
2022/09/22 10:38:41;;;;;;;69.50;6.57;;;17.30;6.90;;;;;;5015122;28;20452;-83
2022/09/22 10:41:18;;;;;;;68.03;5.43;;;17.40;6.90;;;;;;5015801;28;20382;-83
2022/09/22 10:43:51;;;;;;;66.73;4.67;;;17.70;1.00;;;;;;5015329;28;20400;-83
2022/09/22 10:46:50;;;;;;;65.90;4.10;;;17.90;1.00;;;;;;4998064;28;20401;-83
2022/09/22 10:49:27;;;;;;;66.67;4.20;;;18.00;1.00;;;;;;5015314;28;20784;-83
2022/09/22 10:52:24;;;;;;;66.90;4.40;;;18.10;1.00;;;;;;5095064;22;20507;-81
2022/09/22 10:55:19;;;;;;;66.13;3.70;;;18.30;1.00;;;;;;5046403;28;20383;-81
2022/09/22 10:57:57;;;;;;;66.07;3.97;;;18.40;1.00;;;;;;5045642;28;20431;-81
2022/09/22 11:00:25;;;;;;;67.30;4.33;;;18.40;1.00;;;;;;5027469;28;20404;-81
2022/09/22 11:03:10;;;;;;;67.60;4.47;;;18.70;1.00;;;;;;5043900;28;20400;-81
2022/09/22 11:12:18;;;;;;;65.90;3.80;;;18.60;1.00;;;;;;5041815;28;20466;-81
2022/09/22 11:15:12;;;;;;;66.67;4.10;;;18.60;1.00;;;;;;5040331;28;20373;-81
2022/09/22 11:18:09;;;;;;;67.60;4.80;;;18.60;1.00;;;;;;5040516;28;20423;-81
2022/09/22 11:20:42;;;;;;;66.47;4.90;;;18.70;1.00;;;;;;5040135;28;20403;-81
2022/09/22 11:23:32;;;;;;;65.80;4.50;;;18.80;1.00;;;;;;5040983;28;20407;-81
2022/09/22 11:26:00;;;;;;;66.30;5.20;;;18.70;1.00;;;;;;5040789;28;20902;-81
2022/09/22 11:28:35;;;;;;;66.37;4.43;;;18.70;1.00;;;;;;5040990;28;20443;-81
2022/09/22 11:31:01;;;;;;;66.83;3.80;;;18.70;1.00;;;;;;5040055;28;20767;-81
2022/09/22 11:33:58;;;;;;;68.13;4.00;;;18.90;1.00;;;;;;5040241;28;20404;-81
2022/09/22 11:36:42;;;;;;;66.67;3.80;;;19.30;1.00;;;;;;5022794;28;20522;-81
2022/09/22 11:39:23;;;;;;;65.90;3.77;;;18.80;1.00;;;;;;5022705;28;20435;-81
2022/09/22 11:42:23;;;;;;;65.13;3.00;;;18.70;1.00;;;;;;5040346;28;20401;-81
2022/09/22 11:45:36;;;;;;;67.23;3.17;;;19.00;1.00;;;;;;5025436;28;20408;-81
2022/09/22 11:48:27;;;;;;;66.67;3.13;;;19.10;1.00;;;;;;5031273;28;20442;-81
2022/09/22 11:51:29;;;;;;;67.50;2.70;;;19.20;1.00;;;;;;5022684;28;20462;-81
2022/09/22 11:54:16;;;;;;;65.87;2.80;;;19.30;1.00;;;;;;5022256;28;20408;-81
2022/09/22 11:56:48;;;;;;;65.80;2.80;;;19.50;1.00;;;;;;5022064;28;20446;-81
2022/09/22 11:59:50;;;;;;;67.23;2.70;;;19.60;1.00;;;;;;5039999;28;20554;-81
2022/09/22 12:02:25;;;;;;;65.37;2.50;;;19.70;1.00;;;;;;5039869;28;20399;-81
2022/09/22 12:05:07;;;;;;;65.73;3.03;;;19.70;1.00;;;;;;5040087;28;20373;-81
2022/09/22 12:07:43;;;;;;;65.97;3.03;;;19.70;1.00;;;;;;5021987;28;20448;-81
2022/09/22 12:10:16;;;;;;;65.37;2.60;;;19.60;1.00;;;;;;5040179;28;20476;-81
2022/09/22 12:12:47;;;;;;;65.50;2.43;;;19.60;1.00;;;;;;5022165;28;20401;-81
2022/09/22 12:16:00;;;;;;;66.67;3.03;;;19.40;1.00;;;;;;5022382;28;20446;-81
2022/09/22 12:18:36;;;;;;;69.80;3.07;;;19.70;1.00;;;;;;4997076;28;20919;-81
2022/09/22 12:21:30;;;;;;;66.00;3.00;;;19.80;1.00;;;;;;5033934;28;20410;-81
2022/09/22 12:24:00;;;;;;;66.10;2.87;;;19.80;1.00;;;;;;5039722;28;20421;-81
2022/09/22 12:26:32;;;;;;;65.80;2.97;;;19.60;1.00;;;;;;5039802;28;20388;-81
2022/09/22 12:29:00;;;;;;;65.70;2.80;;;20.00;1.00;;;;;;5021723;28;20440;-81
2022/09/22 12:31:40;;;;;;;67.13;2.60;;;20.20;1.00;;;;;;5039461;28;20408;-81
2022/09/22 12:34:14;;;;;;;65.77;2.30;;;20.40;1.00;;;;;;5039084;28;20439;-81
2022/09/22 12:36:41;;;;;;;67.30;2.63;;;20.40;1.00;;;;;;5022193;28;21081;-81
2022/09/22 12:39:08;;;;;;;66.13;2.40;;;20.00;1.00;;;;;;5039253;28;20432;-81
2022/09/22 12:41:47;;;;;;;65.67;2.30;;;19.80;1.00;;;;;;5040171;28;20408;-81
2022/09/22 12:44:43;;;;;;;65.67;2.60;;;19.80;1.00;;;;;;5022838;28;20438;-81
2022/09/22 12:47:32;;;;;;;65.57;2.30;;;19.90;1.00;;;;;;5039240;28;20904;-81
2022/09/22 12:49:59;;;;;;;66.80;2.67;;;19.90;1.00;;;;;;5039314;28;20395;-81
2022/09/22 12:52:46;;;;;;;66.83;2.67;;;19.90;1.00;;;;;;5039527;28;20415;-81
2022/09/22 12:55:18;;;;;;;65.67;2.60;;;19.90;1.00;;;;;;5031691;28;20492;-81
2022/09/22 12:57:46;;;;;;;65.57;2.77;;;20.10;1.00;;;;;;5021062;28;20529;-81
2022/09/22 13:00:35;;;;;;;65.60;2.47;;;20.10;1.00;;;;;;5039677;28;20759;-81
2022/09/22 13:03:37;;;;;;;65.30;2.30;;;20.10;1.00;;;;;;5038643;28;20417;-80
2022/09/22 13:06:22;;;;;;;66.27;2.30;;;20.00;1.00;;;;;;4997413;28;20424;-81
2022/09/22 13:08:51;;;;;;;65.87;2.80;;;20.00;1.00;;;;;;5035435;28;20960;-81
2022/09/22 13:11:17;;;;;;;66.10;2.70;;;19.90;1.00;;;;;;5038817;28;20400;-81
2022/09/22 13:13:42;;;;;;;65.20;2.63;;;19.70;1.00;;;;;;5038652;28;20438;-80
2022/09/22 13:16:14;;;;;;;65.50;2.50;;;19.80;1.00;;;;;;5018045;28;20865;-80
2022/09/22 13:18:39;;;;;;;66.70;2.70;;;20.00;1.00;;;;;;5036487;28;20524;-80
2022/09/22 13:21:11;;;;;;;66.30;2.70;;;20.20;1.00;;;;;;5038379;28;20427;-81
2022/09/22 13:24:01;;;;;;;65.37;2.47;;;20.00;1.00;;;;;;5039375;28;20256;-81
2022/09/22 13:26:35;;;;;;;66.30;2.60;;;19.50;1.00;;;;;;5038891;28;20415;-81
2022/09/22 13:29:05;;;;;;;65.60;2.73;;;19.50;1.00;;;;;;5037572;28;20420;-81
2022/09/22 13:31:42;;;;;;;67.37;2.73;;;19.60;1.00;;;;;;5038628;28;20406;-81
2022/09/22 13:34:34;;;;;;;68.20;3.00;;;19.60;1.00;;;;;;5038285;28;20471;-81
2022/09/22 13:37:16;;;;;;;66.17;2.53;;;19.60;1.00;;;;;;5038623;28;20876;-81
2022/09/22 13:39:45;;;;;;;66.47;2.90;;;19.80;1.00;;;;;;5038412;28;20440;-81
2022/09/22 13:42:21;;;;;;;68.60;2.87;;;19.90;1.00;;;;;;5037903;28;20402;-81
2022/09/22 13:45:07;;;;;;;66.80;2.50;;;19.80;1.00;;;;;;5038159;28;20389;-81
2022/09/22 13:47:34;;;;;;;66.57;3.13;;;19.90;1.00;;;;;;5038002;28;20420;-81
2022/09/22 13:50:07;;;;;;;65.57;2.70;;;19.80;1.00;;;;;;5038511;28;20372;-81
2022/09/22 13:52:35;;;;;;;65.40;2.33;;;19.80;1.00;;;;;;5038157;28;20423;-81
2022/09/22 13:55:33;;;;;;;66.37;2.70;;;19.70;1.00;;;;;;5038068;28;20515;-81
2022/09/22 13:58:13;;;;;;;65.60;2.50;;;19.80;1.00;;;;;;5037699;28;20427;-81
2022/09/22 14:00:45;;;;;;;69.20;2.50;;;19.60;1.00;;;;;;5038520;28;20374;-81
2022/09/22 14:03:20;;;;;;;65.60;2.60;;;19.40;1.00;;;;;;5037834;28;20413;-81
2022/09/22 14:05:48;;;;;;;65.17;2.50;;;19.30;1.00;;;;;;5038156;28;20379;-81
2022/09/22 14:08:18;;;;;;;65.10;2.50;;;19.20;1.00;;;;;;5038303;28;20421;-81
2022/09/22 14:10:45;;;;;;;65.27;2.20;;;19.30;1.00;;;;;;5037285;28;20412;-81
2022/09/22 14:13:39;;;;;;;65.90;2.40;;;19.40;1.00;;;;;;5038087;28;20711;-81
2022/09/22 14:16:08;;;;;;;65.63;2.37;;;19.50;1.00;;;;;;5019806;28;20868;-81
2022/09/22 14:18:44;;;;;;;65.60;2.43;;;19.50;1.00;;;;;;5037200;28;20419;-81
2022/09/22 14:21:12;;;;;;;65.60;2.40;;;19.50;1.00;;;;;;5038250;28;20899;-82
2022/09/22 14:23:47;;;;;;;65.47;2.70;;;19.40;1.00;;;;;;5036575;28;20443;-81
2022/09/22 14:26:26;;;;;;;65.40;2.37;;;19.30;1.00;;;;;;5020235;28;20412;-82
2022/09/22 14:28:54;;;;;;;65.13;2.60;;;19.40;1.00;;;;;;5037371;28;20935;-81
2022/09/22 14:31:31;;;;;;;67.27;2.90;;;19.40;1.00;;;;;;5037144;28;20404;-81
2022/09/22 14:34:00;;;;;;;65.60;2.60;;;19.60;1.00;;;;;;5037186;28;20403;-81
2022/09/22 14:36:26;;;;;;;65.77;2.97;;;19.60;1.00;;;;;;5019496;28;20474;-82
2022/09/22 14:39:03;;;;;;;65.97;3.13;;;19.70;1.00;;;;;;5037597;28;20424;-82
2022/09/22 14:41:35;;;;;;;65.30;2.63;;;19.60;1.00;;;;;;5037359;28;20154;-81
2022/09/22 14:44:20;;;;;;;65.43;3.07;;;19.60;1.00;;;;;;5038215;28;20397;-82